createdAt,value
2022-08-17T02:21:25.615Z,95880.00
2022-08-17T02:25:31.731Z,95882.00
2022-08-17T02:29:34.907Z,95883.00
2022-08-17T02:33:42.527Z,95875.00
2022-08-17T02:37:48.462Z,95884.00
2022-08-17T02:42:02.762Z,95869.00
2022-08-17T02:46:05.928Z,95864.00
2022-08-17T02:50:11.388Z,95856.00
2022-08-17T02:54:41.206Z,95854.00
2022-08-17T02:58:39.367Z,95859.00
2022-08-17T03:02:44.234Z,95857.00
2022-08-17T03:06:47.378Z,95853.00
2022-08-17T03:10:52.197Z,95855.00
2022-08-17T03:14:56.509Z,95854.00
2022-08-17T03:18:59.647Z,95847.00
2022-08-17T03:23:03.341Z,95854.00
2022-08-17T03:27:35.567Z,95851.00
2022-08-17T03:32:13.694Z,95862.00
2022-08-17T03:36:44.313Z,95855.00
2022-08-17T03:41:26.766Z,95860.00
2022-08-17T03:46:34.303Z,95858.00
2022-08-17T03:50:56.036Z,95849.00
2022-08-17T03:55:36.166Z,95840.00
2022-08-17T03:59:40.922Z,95841.00
2022-08-17T04:03:45.625Z,95850.00
2022-08-17T04:08:19.395Z,95852.00
2022-08-17T04:12:56.327Z,95860.00
2022-08-17T04:16:59.437Z,95857.00
2022-08-17T04:21:03.976Z,95862.00
2022-08-17T04:25:10.521Z,95869.00
2022-08-17T04:29:14.001Z,95861.00
2022-08-17T04:33:50.713Z,95868.00
2022-08-17T04:38:30.506Z,95881.00
2022-08-17T04:43:09.254Z,95895.00
2022-08-17T04:47:40.389Z,95890.00
2022-08-17T04:52:32.256Z,95883.00
2022-08-17T04:57:15.961Z,95889.00
2022-08-17T05:01:50.738Z,95888.00
2022-08-17T05:06:28.050Z,95875.00
2022-08-17T05:10:35.229Z,95879.00
2022-08-17T05:15:16.082Z,95894.00
2022-08-17T05:19:19.201Z,95888.00
2022-08-17T05:23:58.468Z,95880.00
2022-08-17T05:28:33.342Z,95882.00
2022-08-17T05:33:11.226Z,95889.00
2022-08-17T05:37:45.337Z,95906.00
2022-08-17T05:42:22.098Z,95903.00
2022-08-17T05:46:36.961Z,95897.00
2022-08-17T05:51:13.831Z,95892.00
2022-08-17T05:55:47.905Z,95896.00
2022-08-17T06:00:21.310Z,95886.00
2022-08-17T06:05:06.259Z,95882.00
2022-08-17T06:09:40.859Z,95882.00
2022-08-17T06:14:15.795Z,95881.00
2022-08-17T06:18:21.704Z,95882.00
2022-08-17T06:22:59.779Z,95889.00
2022-08-17T06:27:35.834Z,95889.00
2022-08-17T06:31:41.473Z,95896.00
2022-08-17T06:36:25.024Z,95907.00
2022-08-17T06:40:58.803Z,95904.00
2022-08-17T06:45:32.433Z,95911.00
2022-08-17T06:50:05.862Z,95917.00
2022-08-17T06:54:16.497Z,95918.00
2022-08-17T06:58:23.184Z,95928.00
2022-08-17T07:02:58.970Z,95928.00
2022-08-17T07:07:47.949Z,95923.00
2022-08-17T07:12:12.778Z,95934.00
2022-08-17T07:16:42.295Z,95931.00
2022-08-17T07:26:07.653Z,95946.00
2022-08-17T07:30:47.330Z,95944.00
2022-08-17T07:35:17.839Z,95949.00
2022-08-17T07:39:59.569Z,95950.00
2022-08-17T07:44:28.030Z,95964.00
2022-08-17T07:49:23.366Z,95966.00
2022-08-17T07:53:54.564Z,95962.00
2022-08-17T07:58:28.466Z,95965.00
2022-08-17T08:03:13.758Z,95971.00
2022-08-17T08:07:45.106Z,95988.00
2022-08-17T08:11:48.517Z,95989.00
2022-08-17T08:16:26.838Z,95984.00
2022-08-17T08:20:52.623Z,95986.00
2022-08-17T08:25:24.295Z,95990.00
2022-08-17T08:30:10.128Z,95991.00
2022-08-17T08:35:00.165Z,95991.00
2022-08-17T08:38:54.990Z,95984.00
2022-08-17T08:43:08.270Z,95987.00
2022-08-17T08:47:44.578Z,95996.00
2022-08-17T08:51:55.551Z,95997.00
2022-08-17T08:56:06.911Z,96011.00
2022-08-17T09:00:39.516Z,96006.00
2022-08-17T09:05:18.667Z,95998.00
2022-08-17T09:09:50.825Z,95992.00
2022-08-17T09:14:28.300Z,95988.00
2022-08-17T09:19:04.623Z,95993.00
2022-08-17T09:23:38.442Z,95984.00
2022-08-17T09:27:53.489Z,95995.00
2022-08-17T09:31:58.747Z,95975.00
2022-08-17T09:36:35.947Z,95975.00
2022-08-17T09:41:14.353Z,95973.00
2022-08-17T09:45:31.567Z,95962.00
2022-08-17T09:49:45.251Z,95961.00
2022-08-17T09:53:50.284Z,95952.00
2022-08-17T09:58:31.635Z,95961.00
2022-08-17T10:03:02.723Z,95961.00
2022-08-17T10:07:43.412Z,95971.00
2022-08-17T10:12:29.944Z,95961.00
2022-08-17T10:16:55.969Z,95970.00
2022-08-17T10:21:21.554Z,95952.00
2022-08-17T10:25:59.317Z,95961.00
2022-08-17T10:30:17.365Z,95950.00
2022-08-17T10:35:01.394Z,95959.00
2022-08-17T10:39:30.725Z,95960.00
2022-08-17T10:44:37.992Z,95965.00
2022-08-17T10:48:34.619Z,95970.00
2022-08-17T10:53:05.159Z,95964.00
2022-08-17T10:57:43.289Z,95954.00
2022-08-17T11:02:21.973Z,95947.00
2022-08-17T11:06:52.433Z,95953.00
2022-08-17T11:11:12.371Z,95950.00
2022-08-17T11:15:45.205Z,95944.00
2022-08-17T11:20:15.295Z,95946.00
2022-08-17T11:24:22.186Z,95940.00
2022-08-17T11:28:56.434Z,95931.00
2022-08-17T11:33:00.372Z,95927.00
2022-08-17T11:37:41.828Z,95938.00
2022-08-17T11:42:18.209Z,95946.00
2022-08-17T11:47:12.519Z,95959.00
2022-08-17T11:51:36.355Z,95960.00
2022-08-17T11:56:06.411Z,95972.00
2022-08-17T12:00:31.327Z,95956.00
2022-08-17T12:04:37.356Z,95964.00
2022-08-17T12:09:14.734Z,95962.00
2022-08-17T12:13:47.988Z,95953.00
2022-08-17T12:18:24.587Z,95949.00
2022-08-17T12:28:06.895Z,95947.00
2022-08-17T12:32:17.835Z,95937.00
2022-08-17T12:36:46.339Z,95934.00
2022-08-17T12:40:57.946Z,95947.00
2022-08-17T12:45:29.447Z,95942.00
2022-08-17T12:50:28.301Z,95939.00
2022-08-17T12:55:12.167Z,95947.00
2022-08-17T12:59:45.267Z,95942.00
2022-08-17T13:03:53.506Z,95937.00
2022-08-17T13:08:26.208Z,95922.00
2022-08-17T13:13:04.937Z,95929.00
2022-08-17T13:17:36.128Z,95927.00
2022-08-17T13:22:14.348Z,95916.00
2022-08-17T13:26:49.588Z,95911.00
2022-08-17T13:31:26.380Z,95917.00
2022-08-17T13:35:39.193Z,95924.00
2022-08-17T13:39:45.707Z,95928.00
2022-08-17T13:44:28.303Z,95909.00
2022-08-17T13:49:03.831Z,95901.00
2022-08-17T13:53:44.358Z,95893.00
2022-08-17T13:58:23.614Z,95890.00
2022-08-17T14:02:57.890Z,95882.00
2022-08-17T14:07:34.856Z,95897.00
2022-08-17T14:11:55.513Z,95886.00
2022-08-17T14:16:33.903Z,95884.00
2022-08-17T14:21:08.509Z,95874.00
2022-08-17T14:30:30.137Z,95882.00
2022-08-17T14:35:07.029Z,95872.00
2022-08-17T14:39:40.905Z,95877.00
2022-08-17T14:43:44.156Z,95878.00
2022-08-17T14:47:48.185Z,95865.00
2022-08-17T14:52:22.206Z,95868.00
2022-08-17T14:57:22.309Z,95845.00
2022-08-17T15:01:24.591Z,95843.00
2022-08-17T15:05:58.447Z,95847.00
2022-08-17T15:10:35.288Z,95846.00
2022-08-17T15:14:57.224Z,95842.00
2022-08-17T15:19:31.303Z,95831.00
2022-08-17T15:23:34.602Z,95825.00
2022-08-17T15:28:12.061Z,95816.00
2022-08-17T15:32:54.566Z,95820.00
2022-08-17T15:37:26.125Z,95837.00
2022-08-17T15:42:04.726Z,95823.00
2022-08-17T15:46:38.725Z,95834.00
2022-08-17T15:51:16.158Z,95845.00
2022-08-17T15:55:49.825Z,95847.00
2022-08-17T16:00:28.270Z,95846.00
2022-08-17T16:05:05.950Z,95849.00
2022-08-17T16:09:39.675Z,95849.00
2022-08-17T16:14:14.046Z,95856.00
2022-08-17T16:18:48.759Z,95855.00
2022-08-17T16:23:26.447Z,95851.00
2022-08-17T16:28:05.478Z,95855.00
2022-08-17T16:32:39.854Z,95849.00
2022-08-17T16:37:17.474Z,95850.00
2022-08-17T16:41:54.386Z,95846.00
2022-08-17T16:46:33.539Z,95854.00
2022-08-17T16:51:04.350Z,95850.00
2022-08-17T16:55:36.702Z,95848.00
2022-08-17T17:00:13.097Z,95840.00
2022-08-17T17:04:50.641Z,95845.00
2022-08-17T17:09:27.514Z,95845.00
2022-08-17T17:14:02.137Z,95846.00
2022-08-17T17:18:43.712Z,95838.00
2022-08-17T17:23:07.915Z,95840.00
2022-08-17T17:27:41.173Z,95841.00
2022-08-17T17:32:17.428Z,95829.00
2022-08-17T17:36:51.757Z,95816.00
2022-08-17T17:41:31.338Z,95816.00
2022-08-17T17:46:26.513Z,95829.00
2022-08-17T17:50:50.274Z,95824.00
2022-08-17T17:55:41.739Z,95826.00
2022-08-17T18:00:12.508Z,95828.00
2022-08-17T18:04:43.324Z,95820.00
2022-08-17T18:09:19.480Z,95819.00
2022-08-17T18:13:56.754Z,95812.00
2022-08-17T18:18:37.882Z,95800.00
2022-08-17T18:22:41.233Z,95809.00
2022-08-17T18:32:25.167Z,95794.00
2022-08-17T18:36:50.965Z,95800.00
2022-08-17T18:41:30.414Z,95799.00
2022-08-17T18:46:16.235Z,95801.00
2022-08-17T18:50:42.173Z,95804.00
2022-08-17T18:55:15.806Z,95798.00
2022-08-17T18:59:49.785Z,95797.00
2022-08-17T19:03:53.001Z,95807.00
2022-08-17T19:08:34.261Z,95806.00
2022-08-17T19:13:12.398Z,95809.00
2022-08-17T19:17:43.089Z,95805.00
2022-08-17T19:22:29.344Z,95802.00
2022-08-17T19:26:51.226Z,95813.00
2022-08-17T19:31:13.868Z,95799.00
2022-08-17T19:35:25.746Z,95807.00
2022-08-17T19:39:58.039Z,95802.00
2022-08-17T19:44:29.143Z,95803.00
2022-08-17T19:49:12.492Z,95790.00
2022-08-17T19:54:04.906Z,95786.00
2022-08-17T19:58:34.055Z,95790.00
2022-08-17T20:03:06.083Z,95799.00
2022-08-17T20:07:38.483Z,95815.00
2022-08-17T20:12:08.985Z,95828.00
2022-08-17T20:16:43.631Z,95829.00
2022-08-17T20:21:22.200Z,95830.00
2022-08-17T20:30:46.914Z,95824.00
2022-08-17T20:35:23.027Z,95835.00
2022-08-17T20:39:34.649Z,95835.00
2022-08-17T20:44:04.468Z,95846.00
2022-08-17T20:48:45.527Z,95843.00
2022-08-17T20:53:16.737Z,95838.00
2022-08-17T20:57:47.493Z,95839.00
2022-08-17T21:02:22.116Z,95840.00
2022-08-17T21:06:27.053Z,95834.00
2022-08-17T21:10:39.267Z,95827.00
2022-08-17T21:15:01.333Z,95824.00
2022-08-17T21:19:31.257Z,95821.00
2022-08-17T21:23:54.839Z,95808.00
2022-08-17T21:28:16.889Z,95813.00
2022-08-17T21:32:31.318Z,95803.00
2022-08-17T21:37:13.764Z,95798.00
2022-08-17T21:41:22.236Z,95801.00
2022-08-17T21:45:53.909Z,95796.00
2022-08-17T21:50:14.759Z,95783.00
2022-08-17T21:54:31.867Z,95775.00
2022-08-17T21:58:59.525Z,95780.00
2022-08-17T22:03:04.593Z,95780.00
2022-08-17T22:07:10.540Z,95785.00
2022-08-17T22:11:52.826Z,95786.00
2022-08-17T22:16:15.369Z,95794.00
2022-08-17T22:21:08.265Z,95789.00
2022-08-17T22:25:22.154Z,95789.00
2022-08-17T22:29:44.946Z,95794.00
2022-08-17T22:33:51.524Z,95790.00
2022-08-17T22:37:54.675Z,95797.00
2022-08-17T22:42:00.182Z,95797.00
2022-08-17T22:46:12.784Z,95794.00
2022-08-17T22:50:26.681Z,95787.00
2022-08-17T22:54:47.935Z,95788.00
2022-08-17T22:59:10.994Z,95789.00
2022-08-17T23:03:19.030Z,95783.00
2022-08-17T23:07:53.947Z,95785.00
2022-08-17T23:11:58.632Z,95787.00
2022-08-17T23:16:02.491Z,95790.00
2022-08-17T23:20:08.597Z,95790.00
2022-08-17T23:24:20.995Z,95809.00
2022-08-17T23:28:24.093Z,95811.00
2022-08-17T23:33:02.026Z,95820.00
2022-08-17T23:37:05.274Z,95827.00
2022-08-17T23:41:14.364Z,95828.00
2022-08-17T23:45:18.047Z,95839.00
2022-08-17T23:49:21.525Z,95839.00
2022-08-17T23:53:26.013Z,95838.00
2022-08-17T23:58:05.476Z,95848.00
